logo
Search for airport 
image banner adimage banner adimage banner ad
image banner ad

EPDR - Drawsko Pomorskie

Located in , Poland

ICAO - EPDR, IATA -

Data provided by Airmate  

General information

Coordinates: N53°28'29" E15°44'16"
Elevation is 377 feet MSL.
 
View others Airports in West Pomerania

Operational data

Special qualification required
Current time UTC:
Current local time:
Weather at : EPMI - Miroslawiec ( 24 km )
TAF: TAF AMD EPMI 161841Z 1618/1706 24006KT CAVOK PROB30 TEMPO 1618/1621 2500 TSRA BKN008 BKN020CB
View NOTAMs / SUP AIP / TFR affecting this airport [VIEW]
Communications frequencies: [VIEW]

Runways:

Airport contact information

Address: Poland

Satellite view of EPDR